Lukeville, Arizona
Current Conditions -  °F | °C
As of 10:55 AM on Thursday 30 Oct 2014 (Local Time) from KGXF Reporting Station
Broken Clouds Broken Clouds  
Wind Chill: 81°   Ceiling: 25000
Heat Index: 81°   Visibility: 10mi
Dew Point: 43°   Wind: 3mph
Humidity: 26%   Direction: 30°NNE
Pressure: 30"   Gusts: NA
Location:  31.88°N, 112.82°W
Report Text: KGXF 301755Z 03003KT 10SM BKN250 27/06 A3000 RMK SLP150 58003
Loading
Personal Weather Stations






























Interactive Weather Map
Tropical Storm Tracking
New forecast layout! Learn more

10-Day Weather Forecast

Advertisements
Track Severe Weather on mobile